sensor_id;sensor_type;location;lat;lon;timestamp;temperature;humidity
19220;DHT22;9744;49.364;7.484;2022-07-06T00:01:36;23.20;70.30
19220;DHT22;9744;49.364;7.484;2022-07-06T00:04:04;23.20;70.20
19220;DHT22;9744;49.364;7.484;2022-07-06T00:06:31;23.20;70.50
19220;DHT22;9744;49.364;7.484;2022-07-06T00:08:58;23.10;70.30
19220;DHT22;9744;49.364;7.484;2022-07-06T00:11:27;23.00;70.90
19220;DHT22;9744;49.364;7.484;2022-07-06T00:13:55;22.90;71.00
19220;DHT22;9744;49.364;7.484;2022-07-06T00:16:23;22.80;70.70
19220;DHT22;9744;49.364;7.484;2022-07-06T00:18:50;22.80;71.40
19220;DHT22;9744;49.364;7.484;2022-07-06T00:21:18;22.80;70.60
19220;DHT22;9744;49.364;7.484;2022-07-06T00:23:45;22.80;71.10
19220;DHT22;9744;49.364;7.484;2022-07-06T00:26:12;22.80;70.20
19220;DHT22;9744;49.364;7.484;2022-07-06T00:28:41;22.80;70.30
19220;DHT22;9744;49.364;7.484;2022-07-06T00:31:09;22.80;70.60
19220;DHT22;9744;49.364;7.484;2022-07-06T00:33:36;22.70;70.90
19220;DHT22;9744;49.364;7.484;2022-07-06T00:36:04;22.70;71.80
19220;DHT22;9744;49.364;7.484;2022-07-06T00:38:31;22.50;72.00
19220;DHT22;9744;49.364;7.484;2022-07-06T00:40:58;22.50;70.90
19220;DHT22;9744;49.364;7.484;2022-07-06T00:43:26;22.60;71.20
19220;DHT22;9744;49.364;7.484;2022-07-06T00:45:54;22.60;71.60
19220;DHT22;9744;49.364;7.484;2022-07-06T00:48:22;22.50;71.40
19220;DHT22;9744;49.364;7.484;2022-07-06T00:50:49;22.50;71.10
19220;DHT22;9744;49.364;7.484;2022-07-06T00:53:16;22.50;70.90
19220;DHT22;9744;49.364;7.484;2022-07-06T00:55:44;22.40;71.50
19220;DHT22;9744;49.364;7.484;2022-07-06T00:58:11;22.40;72.00
19220;DHT22;9744;49.364;7.484;2022-07-06T01:00:39;22.30;73.00
19220;DHT22;9744;49.364;7.484;2022-07-06T01:03:12;22.20;72.20
19220;DHT22;9744;49.364;7.484;2022-07-06T01:05:40;22.20;71.60
19220;DHT22;9744;49.364;7.484;2022-07-06T01:08:07;22.20;72.50
19220;DHT22;9744;49.364;7.484;2022-07-06T01:10:34;22.00;72.60
19220;DHT22;9744;49.364;7.484;2022-07-06T01:13:02;22.00;72.00
19220;DHT22;9744;49.364;7.484;2022-07-06T01:15:29;22.00;72.20
19220;DHT22;9744;49.364;7.484;2022-07-06T01:17:56;22.00;71.80
19220;DHT22;9744;49.364;7.484;2022-07-06T01:20:31;21.90;72.60
19220;DHT22;9744;49.364;7.484;2022-07-06T01:22:59;22.00;73.50
19220;DHT22;9744;49.364;7.484;2022-07-06T01:25:27;21.80;72.80
19220;DHT22;9744;49.364;7.484;2022-07-06T01:27:54;21.80;72.40
19220;DHT22;9744;49.364;7.484;2022-07-06T01:30:21;21.90;72.70
19220;DHT22;9744;49.364;7.484;2022-07-06T01:32:49;21.80;72.70
19220;DHT22;9744;49.364;7.484;2022-07-06T01:35:17;21.80;73.40
19220;DHT22;9744;49.364;7.484;2022-07-06T01:37:46;21.70;74.20
19220;DHT22;9744;49.364;7.484;2022-07-06T01:40:13;21.60;74.10
19220;DHT22;9744;49.364;7.484;2022-07-06T01:42:41;21.60;74.20
19220;DHT22;9744;49.364;7.484;2022-07-06T01:45:09;21.50;74.90
19220;DHT22;9744;49.364;7.484;2022-07-06T01:47:38;21.40;74.40
19220;DHT22;9744;49.364;7.484;2022-07-06T01:50:07;21.30;74.50
19220;DHT22;9744;49.364;7.484;2022-07-06T01:52:38;21.20;75.20
19220;DHT22;9744;49.364;7.484;2022-07-06T01:55:07;21.10;75.40
19220;DHT22;9744;49.364;7.484;2022-07-06T01:57:37;21.10;75.40
19220;DHT22;9744;49.364;7.484;2022-07-06T02:00:06;21.00;76.30
19220;DHT22;9744;49.364;7.484;2022-07-06T02:02:38;20.80;76.50
19220;DHT22;9744;49.364;7.484;2022-07-06T02:05:08;20.80;75.90
19220;DHT22;9744;49.364;7.484;2022-07-06T02:07:35;20.80;76.20
19220;DHT22;9744;49.364;7.484;2022-07-06T02:10:04;20.80;76.50
19220;DHT22;9744;49.364;7.484;2022-07-06T02:12:33;20.70;76.60
19220;DHT22;9744;49.364;7.484;2022-07-06T02:15:00;20.60;77.80
19220;DHT22;9744;49.364;7.484;2022-07-06T02:17:27;20.50;77.20
19220;DHT22;9744;49.364;7.484;2022-07-06T02:19:55;20.40;76.60
19220;DHT22;9744;49.364;7.484;2022-07-06T02:22:23;20.40;77.30
19220;DHT22;9744;49.364;7.484;2022-07-06T02:24:50;20.40;77.30
19220;DHT22;9744;49.364;7.484;2022-07-06T02:27:18;20.40;76.50
19220;DHT22;9744;49.364;7.484;2022-07-06T02:30:19;20.40;76.60
19220;DHT22;9744;49.364;7.484;2022-07-06T02:32:47;20.50;76.40
19220;DHT22;9744;49.364;7.484;2022-07-06T02:35:15;20.60;76.30
19220;DHT22;9744;49.364;7.484;2022-07-06T02:37:46;20.70;76.00
19220;DHT22;9744;49.364;7.484;2022-07-06T02:40:13;20.70;76.30
19220;DHT22;9744;49.364;7.484;2022-07-06T02:42:41;20.60;75.80
19220;DHT22;9744;49.364;7.484;2022-07-06T02:45:10;20.50;76.30
19220;DHT22;9744;49.364;7.484;2022-07-06T02:47:42;20.50;76.10
19220;DHT22;9744;49.364;7.484;2022-07-06T02:50:09;20.50;76.40
19220;DHT22;9744;49.364;7.484;2022-07-06T02:52:37;20.50;76.30
19220;DHT22;9744;49.364;7.484;2022-07-06T02:55:05;20.50;76.30
19220;DHT22;9744;49.364;7.484;2022-07-06T02:57:33;20.50;75.80
19220;DHT22;9744;49.364;7.484;2022-07-06T03:00:01;20.60;76.00
19220;DHT22;9744;49.364;7.484;2022-07-06T03:02:30;20.60;75.70
19220;DHT22;9744;49.364;7.484;2022-07-06T03:04:59;20.60;75.90
19220;DHT22;9744;49.364;7.484;2022-07-06T03:07:27;20.50;75.90
19220;DHT22;9744;49.364;7.484;2022-07-06T03:09:55;20.40;76.40
19220;DHT22;9744;49.364;7.484;2022-07-06T03:12:22;20.40;75.80
19220;DHT22;9744;49.364;7.484;2022-07-06T03:14:49;20.40;75.50
19220;DHT22;9744;49.364;7.484;2022-07-06T03:17:17;20.40;75.10
19220;DHT22;9744;49.364;7.484;2022-07-06T03:19:45;20.40;74.70
19220;DHT22;9744;49.364;7.484;2022-07-06T03:22:14;20.50;74.90
19220;DHT22;9744;49.364;7.484;2022-07-06T03:24:41;20.50;75.00
19220;DHT22;9744;49.364;7.484;2022-07-06T03:27:09;20.50;74.90
19220;DHT22;9744;49.364;7.484;2022-07-06T03:29:36;20.50;74.60
19220;DHT22;9744;49.364;7.484;2022-07-06T03:32:05;20.50;75.00
19220;DHT22;9744;49.364;7.484;2022-07-06T03:34:32;20.40;74.90
19220;DHT22;9744;49.364;7.484;2022-07-06T03:37:00;20.40;75.10
19220;DHT22;9744;49.364;7.484;2022-07-06T03:39:28;20.40;75.80
19220;DHT22;9744;49.364;7.484;2022-07-06T03:41:57;20.40;75.80
19220;DHT22;9744;49.364;7.484;2022-07-06T03:44:24;20.40;75.90
19220;DHT22;9744;49.364;7.484;2022-07-06T03:46:52;20.30;76.00
19220;DHT22;9744;49.364;7.484;2022-07-06T03:49:22;20.30;76.30
19220;DHT22;9744;49.364;7.484;2022-07-06T03:51:53;20.30;76.30
19220;DHT22;9744;49.364;7.484;2022-07-06T03:54:22;20.20;76.50
19220;DHT22;9744;49.364;7.484;2022-07-06T03:56:51;20.20;76.50
19220;DHT22;9744;49.364;7.484;2022-07-06T03:59:18;20.20;76.70
19220;DHT22;9744;49.364;7.484;2022-07-06T04:01:46;20.20;76.70
19220;DHT22;9744;49.364;7.484;2022-07-06T04:04:15;20.20;76.70
19220;DHT22;9744;49.364;7.484;2022-07-06T04:06:45;20.20;76.90
19220;DHT22;9744;49.364;7.484;2022-07-06T04:09:13;20.20;77.00
19220;DHT22;9744;49.364;7.484;2022-07-06T04:11:41;20.10;77.20
19220;DHT22;9744;49.364;7.484;2022-07-06T04:14:10;20.10;77.20
19220;DHT22;9744;49.364;7.484;2022-07-06T04:16:37;20.10;77.30
19220;DHT22;9744;49.364;7.484;2022-07-06T04:19:05;20.00;78.00
19220;DHT22;9744;49.364;7.484;2022-07-06T04:21:32;20.00;77.60
19220;DHT22;9744;49.364;7.484;2022-07-06T04:23:59;20.00;77.70
19220;DHT22;9744;49.364;7.484;2022-07-06T04:26:27;19.90;77.90
19220;DHT22;9744;49.364;7.484;2022-07-06T04:28:57;19.90;78.00
19220;DHT22;9744;49.364;7.484;2022-07-06T04:31:27;19.90;78.10
19220;DHT22;9744;49.364;7.484;2022-07-06T04:33:55;19.90;78.20
19220;DHT22;9744;49.364;7.484;2022-07-06T04:36:24;19.80;78.30
19220;DHT22;9744;49.364;7.484;2022-07-06T04:38:51;19.80;78.40
19220;DHT22;9744;49.364;7.484;2022-07-06T04:41:19;19.80;78.60
19220;DHT22;9744;49.364;7.484;2022-07-06T04:43:46;19.80;78.80
19220;DHT22;9744;49.364;7.484;2022-07-06T04:46:17;19.70;78.70
19220;DHT22;9744;49.364;7.484;2022-07-06T04:48:48;19.70;78.70
19220;DHT22;9744;49.364;7.484;2022-07-06T04:51:21;19.80;79.00
19220;DHT22;9744;49.364;7.484;2022-07-06T04:53:49;19.70;78.80
19220;DHT22;9744;49.364;7.484;2022-07-06T04:56:16;19.60;79.30
19220;DHT22;9744;49.364;7.484;2022-07-06T04:58:44;19.60;79.00
19220;DHT22;9744;49.364;7.484;2022-07-06T05:01:14;19.70;79.10
19220;DHT22;9744;49.364;7.484;2022-07-06T05:03:42;19.70;78.90
19220;DHT22;9744;49.364;7.484;2022-07-06T05:06:13;19.70;78.90
19220;DHT22;9744;49.364;7.484;2022-07-06T05:08:41;19.70;79.00
19220;DHT22;9744;49.364;7.484;2022-07-06T05:11:08;19.70;79.00
19220;DHT22;9744;49.364;7.484;2022-07-06T05:13:35;19.70;79.20
19220;DHT22;9744;49.364;7.484;2022-07-06T05:16:04;19.70;79.30
19220;DHT22;9744;49.364;7.484;2022-07-06T05:18:31;19.60;79.20
19220;DHT22;9744;49.364;7.484;2022-07-06T05:20:59;19.60;79.60
19220;DHT22;9744;49.364;7.484;2022-07-06T05:23:28;19.60;79.60
19220;DHT22;9744;49.364;7.484;2022-07-06T05:25:56;19.60;79.60
19220;DHT22;9744;49.364;7.484;2022-07-06T05:28:24;19.60;79.80
19220;DHT22;9744;49.364;7.484;2022-07-06T05:30:52;19.50;79.80
19220;DHT22;9744;49.364;7.484;2022-07-06T05:33:19;19.60;80.20
19220;DHT22;9744;49.364;7.484;2022-07-06T05:35:47;19.60;80.00
19220;DHT22;9744;49.364;7.484;2022-07-06T05:38:15;19.50;80.00
19220;DHT22;9744;49.364;7.484;2022-07-06T05:40:43;19.50;80.00
19220;DHT22;9744;49.364;7.484;2022-07-06T05:43:11;19.60;80.00
19220;DHT22;9744;49.364;7.484;2022-07-06T05:45:38;19.60;79.90
19220;DHT22;9744;49.364;7.484;2022-07-06T05:48:06;19.70;80.00
19220;DHT22;9744;49.364;7.484;2022-07-06T05:50:53;19.60;80.00
19220;DHT22;9744;49.364;7.484;2022-07-06T05:53:21;19.60;80.10
19220;DHT22;9744;49.364;7.484;2022-07-06T05:55:56;19.60;80.50
19220;DHT22;9744;49.364;7.484;2022-07-06T05:58:25;19.50;80.60
19220;DHT22;9744;49.364;7.484;2022-07-06T06:00:53;19.60;80.60
19220;DHT22;9744;49.364;7.484;2022-07-06T06:03:20;19.50;80.00
19220;DHT22;9744;49.364;7.484;2022-07-06T06:05:49;19.50;79.80
19220;DHT22;9744;49.364;7.484;2022-07-06T06:08:18;19.50;79.40
19220;DHT22;9744;49.364;7.484;2022-07-06T06:10:46;19.50;79.10
19220;DHT22;9744;49.364;7.484;2022-07-06T06:13:18;19.40;79.30
19220;DHT22;9744;49.364;7.484;2022-07-06T06:15:45;19.40;79.10
19220;DHT22;9744;49.364;7.484;2022-07-06T06:18:14;19.40;79.30
19220;DHT22;9744;49.364;7.484;2022-07-06T06:20:43;19.40;79.00
19220;DHT22;9744;49.364;7.484;2022-07-06T06:23:10;19.40;79.30
19220;DHT22;9744;49.364;7.484;2022-07-06T06:25:39;19.40;79.30
19220;DHT22;9744;49.364;7.484;2022-07-06T06:28:07;19.60;79.60
19220;DHT22;9744;49.364;7.484;2022-07-06T06:30:37;19.70;79.40
19220;DHT22;9744;49.364;7.484;2022-07-06T06:33:06;19.70;79.00
19220;DHT22;9744;49.364;7.484;2022-07-06T06:35:34;19.70;79.00
19220;DHT22;9744;49.364;7.484;2022-07-06T06:38:01;19.90;79.00
19220;DHT22;9744;49.364;7.484;2022-07-06T06:40:28;19.90;79.30
19220;DHT22;9744;49.364;7.484;2022-07-06T06:42:56;20.10;79.70
19220;DHT22;9744;49.364;7.484;2022-07-06T06:45:24;20.30;78.70
19220;DHT22;9744;49.364;7.484;2022-07-06T06:47:52;20.30;78.70
19220;DHT22;9744;49.364;7.484;2022-07-06T06:50:20;20.40;79.10
19220;DHT22;9744;49.364;7.484;2022-07-06T06:52:49;20.60;78.60
19220;DHT22;9744;49.364;7.484;2022-07-06T06:55:16;20.70;78.50
19220;DHT22;9744;49.364;7.484;2022-07-06T06:57:43;20.80;77.90
19220;DHT22;9744;49.364;7.484;2022-07-06T07:00:11;20.80;77.80
19220;DHT22;9744;49.364;7.484;2022-07-06T07:02:39;20.80;77.60
19220;DHT22;9744;49.364;7.484;2022-07-06T07:05:08;20.90;77.80
19220;DHT22;9744;49.364;7.484;2022-07-06T07:07:35;21.00;77.90
19220;DHT22;9744;49.364;7.484;2022-07-06T07:10:04;21.10;77.90
19220;DHT22;9744;49.364;7.484;2022-07-06T07:12:31;21.20;77.30
19220;DHT22;9744;49.364;7.484;2022-07-06T07:14:59;21.20;77.30
19220;DHT22;9744;49.364;7.484;2022-07-06T07:17:26;21.30;77.20
19220;DHT22;9744;49.364;7.484;2022-07-06T07:19:53;21.30;77.30
19220;DHT22;9744;49.364;7.484;2022-07-06T07:22:24;21.40;77.30
19220;DHT22;9744;49.364;7.484;2022-07-06T07:24:51;21.40;77.20
19220;DHT22;9744;49.364;7.484;2022-07-06T07:27:18;21.50;77.00
19220;DHT22;9744;49.364;7.484;2022-07-06T07:29:45;21.70;77.00
19220;DHT22;9744;49.364;7.484;2022-07-06T07:32:13;21.70;77.30
19220;DHT22;9744;49.364;7.484;2022-07-06T07:34:40;22.00;77.30
19220;DHT22;9744;49.364;7.484;2022-07-06T07:37:07;22.10;77.40
19220;DHT22;9744;49.364;7.484;2022-07-06T07:39:36;22.30;77.00
19220;DHT22;9744;49.364;7.484;2022-07-06T07:42:04;22.50;76.40
19220;DHT22;9744;49.364;7.484;2022-07-06T07:44:31;22.60;75.90
19220;DHT22;9744;49.364;7.484;2022-07-06T07:46:58;22.60;76.00
19220;DHT22;9744;49.364;7.484;2022-07-06T07:49:25;22.60;75.40
19220;DHT22;9744;49.364;7.484;2022-07-06T07:51:53;22.60;75.30
19220;DHT22;9744;49.364;7.484;2022-07-06T07:54:20;22.70;75.40
19220;DHT22;9744;49.364;7.484;2022-07-06T07:56:48;22.80;75.70
19220;DHT22;9744;49.364;7.484;2022-07-06T07:59:16;22.90;75.10
19220;DHT22;9744;49.364;7.484;2022-07-06T08:01:43;23.00;75.20
19220;DHT22;9744;49.364;7.484;2022-07-06T08:04:10;23.10;75.10
19220;DHT22;9744;49.364;7.484;2022-07-06T08:06:37;23.20;74.20
19220;DHT22;9744;49.364;7.484;2022-07-06T08:09:04;23.20;75.70
19220;DHT22;9744;49.364;7.484;2022-07-06T08:11:33;23.50;76.00
19220;DHT22;9744;49.364;7.484;2022-07-06T08:14:02;23.80;74.50
19220;DHT22;9744;49.364;7.484;2022-07-06T08:16:30;24.00;74.90
19220;DHT22;9744;49.364;7.484;2022-07-06T08:18:58;24.30;74.30
19220;DHT22;9744;49.364;7.484;2022-07-06T08:21:26;24.50;74.60
19220;DHT22;9744;49.364;7.484;2022-07-06T08:23:54;24.70;74.10
19220;DHT22;9744;49.364;7.484;2022-07-06T08:26:22;24.90;73.70
19220;DHT22;9744;49.364;7.484;2022-07-06T08:28:49;25.10;72.30
19220;DHT22;9744;49.364;7.484;2022-07-06T08:31:18;25.10;72.00
19220;DHT22;9744;49.364;7.484;2022-07-06T08:33:45;25.00;72.50
19220;DHT22;9744;49.364;7.484;2022-07-06T08:36:12;25.00;72.90
19220;DHT22;9744;49.364;7.484;2022-07-06T08:38:39;25.30;72.40
19220;DHT22;9744;49.364;7.484;2022-07-06T08:41:07;25.20;71.70
19220;DHT22;9744;49.364;7.484;2022-07-06T08:43:35;25.30;71.40
19220;DHT22;9744;49.364;7.484;2022-07-06T08:46:02;25.30;72.20
19220;DHT22;9744;49.364;7.484;2022-07-06T08:48:36;25.40;72.00
19220;DHT22;9744;49.364;7.484;2022-07-06T08:51:04;25.70;72.00
19220;DHT22;9744;49.364;7.484;2022-07-06T08:53:31;26.30;71.20
19220;DHT22;9744;49.364;7.484;2022-07-06T08:55:59;26.60;70.60
19220;DHT22;9744;49.364;7.484;2022-07-06T08:58:27;26.70;70.20
19220;DHT22;9744;49.364;7.484;2022-07-06T09:00:55;26.70;70.10
19220;DHT22;9744;49.364;7.484;2022-07-06T09:03:23;27.00;70.30
19220;DHT22;9744;49.364;7.484;2022-07-06T09:05:53;27.00;70.00
19220;DHT22;9744;49.364;7.484;2022-07-06T09:08:24;27.20;69.80
19220;DHT22;9744;49.364;7.484;2022-07-06T09:10:53;27.20;69.30
19220;DHT22;9744;49.364;7.484;2022-07-06T09:13:20;27.10;68.50
19220;DHT22;9744;49.364;7.484;2022-07-06T09:15:47;27.00;67.60
19220;DHT22;9744;49.364;7.484;2022-07-06T09:18:15;27.10;68.10
19220;DHT22;9744;49.364;7.484;2022-07-06T09:20:42;27.30;68.50
19220;DHT22;9744;49.364;7.484;2022-07-06T09:23:16;27.50;67.80
19220;DHT22;9744;49.364;7.484;2022-07-06T09:25:47;27.50;67.50
19220;DHT22;9744;49.364;7.484;2022-07-06T09:28:15;27.60;67.20
19220;DHT22;9744;49.364;7.484;2022-07-06T09:30:43;27.80;66.90
19220;DHT22;9744;49.364;7.484;2022-07-06T09:33:10;28.00;66.60
19220;DHT22;9744;49.364;7.484;2022-07-06T09:35:38;28.20;66.50
19220;DHT22;9744;49.364;7.484;2022-07-06T09:38:07;28.30;65.70
19220;DHT22;9744;49.364;7.484;2022-07-06T09:40:37;28.20;64.50
19220;DHT22;9744;49.364;7.484;2022-07-06T09:43:12;28.20;64.70
19220;DHT22;9744;49.364;7.484;2022-07-06T09:45:42;28.50;64.90
19220;DHT22;9744;49.364;7.484;2022-07-06T09:48:11;28.60;63.20
19220;DHT22;9744;49.364;7.484;2022-07-06T09:50:41;28.50;62.80
19220;DHT22;9744;49.364;7.484;2022-07-06T09:53:09;28.50;62.40
19220;DHT22;9744;49.364;7.484;2022-07-06T09:55:38;28.50;62.30
19220;DHT22;9744;49.364;7.484;2022-07-06T09:58:05;28.70;62.90
19220;DHT22;9744;49.364;7.484;2022-07-06T10:00:33;28.90;63.00
19220;DHT22;9744;49.364;7.484;2022-07-06T10:03:00;29.10;61.80
19220;DHT22;9744;49.364;7.484;2022-07-06T10:05:28;29.30;62.50
19220;DHT22;9744;49.364;7.484;2022-07-06T10:07:58;29.50;62.10
19220;DHT22;9744;49.364;7.484;2022-07-06T10:10:26;29.90;61.90
19220;DHT22;9744;49.364;7.484;2022-07-06T10:12:57;30.30;61.80
19220;DHT22;9744;49.364;7.484;2022-07-06T10:15:26;30.30;61.40
19220;DHT22;9744;49.364;7.484;2022-07-06T10:17:54;30.40;60.20
19220;DHT22;9744;49.364;7.484;2022-07-06T10:20:22;30.70;60.10
19220;DHT22;9744;49.364;7.484;2022-07-06T10:22:50;30.80;60.10
19220;DHT22;9744;49.364;7.484;2022-07-06T10:25:18;30.60;60.00
19220;DHT22;9744;49.364;7.484;2022-07-06T10:27:46;30.40;60.10
19220;DHT22;9744;49.364;7.484;2022-07-06T10:30:15;30.40;60.50
19220;DHT22;9744;49.364;7.484;2022-07-06T10:32:45;30.60;60.40
19220;DHT22;9744;49.364;7.484;2022-07-06T10:35:13;30.90;60.00
19220;DHT22;9744;49.364;7.484;2022-07-06T10:37:41;31.30;59.70
19220;DHT22;9744;49.364;7.484;2022-07-06T10:40:15;31.50;59.20
19220;DHT22;9744;49.364;7.484;2022-07-06T10:43:01;31.60;58.80
19220;DHT22;9744;49.364;7.484;2022-07-06T10:45:51;31.70;58.80
19220;DHT22;9744;49.364;7.484;2022-07-06T10:48:20;31.70;58.50
19220;DHT22;9744;49.364;7.484;2022-07-06T10:50:50;31.80;58.90
19220;DHT22;9744;49.364;7.484;2022-07-06T10:53:21;31.70;59.00
19220;DHT22;9744;49.364;7.484;2022-07-06T10:55:50;31.80;58.80
19220;DHT22;9744;49.364;7.484;2022-07-06T10:58:36;31.80;59.00
19220;DHT22;9744;49.364;7.484;2022-07-06T11:01:06;31.60;58.50
19220;DHT22;9744;49.364;7.484;2022-07-06T11:03:38;31.50;58.90
19220;DHT22;9744;49.364;7.484;2022-07-06T11:06:07;31.60;59.40
19220;DHT22;9744;49.364;7.484;2022-07-06T11:08:53;31.70;58.50
19220;DHT22;9744;49.364;7.484;2022-07-06T11:11:23;31.90;58.10
19220;DHT22;9744;49.364;7.484;2022-07-06T11:13:59;32.00;58.00
19220;DHT22;9744;49.364;7.484;2022-07-06T11:16:30;32.20;57.70
19220;DHT22;9744;49.364;7.484;2022-07-06T11:19:03;32.30;57.60
19220;DHT22;9744;49.364;7.484;2022-07-06T11:21:36;32.40;57.50
19220;DHT22;9744;49.364;7.484;2022-07-06T11:24:05;32.60;56.70
19220;DHT22;9744;49.364;7.484;2022-07-06T11:26:33;33.00;56.40
19220;DHT22;9744;49.364;7.484;2022-07-06T11:29:03;33.20;56.30
19220;DHT22;9744;49.364;7.484;2022-07-06T11:31:35;33.30;55.80
19220;DHT22;9744;49.364;7.484;2022-07-06T11:34:04;33.30;56.40
19220;DHT22;9744;49.364;7.484;2022-07-06T11:36:32;32.90;52.40
19220;DHT22;9744;49.364;7.484;2022-07-06T11:38:59;32.80;55.70
19220;DHT22;9744;49.364;7.484;2022-07-06T11:41:27;32.70;56.10
19220;DHT22;9744;49.364;7.484;2022-07-06T11:43:54;33.00;55.50
19220;DHT22;9744;49.364;7.484;2022-07-06T11:46:24;33.20;56.10
19220;DHT22;9744;49.364;7.484;2022-07-06T11:48:54;33.40;56.10
19220;DHT22;9744;49.364;7.484;2022-07-06T11:51:22;33.30;56.90
19220;DHT22;9744;49.364;7.484;2022-07-06T11:53:51;33.30;56.00
19220;DHT22;9744;49.364;7.484;2022-07-06T11:56:20;33.20;52.50
19220;DHT22;9744;49.364;7.484;2022-07-06T11:58:52;32.80;55.10
19220;DHT22;9744;49.364;7.484;2022-07-06T12:01:21;33.00;55.20
19220;DHT22;9744;49.364;7.484;2022-07-06T12:03:49;33.10;53.90
19220;DHT22;9744;49.364;7.484;2022-07-06T12:06:19;33.10;53.90
19220;DHT22;9744;49.364;7.484;2022-07-06T12:08:50;33.20;54.60
19220;DHT22;9744;49.364;7.484;2022-07-06T12:11:22;33.40;54.70
19220;DHT22;9744;49.364;7.484;2022-07-06T12:13:50;33.60;55.10
19220;DHT22;9744;49.364;7.484;2022-07-06T12:16:18;33.60;54.60
19220;DHT22;9744;49.364;7.484;2022-07-06T12:18:47;33.80;53.70
19220;DHT22;9744;49.364;7.484;2022-07-06T12:21:17;33.90;54.10
19220;DHT22;9744;49.364;7.484;2022-07-06T12:23:47;33.90;53.00
19220;DHT22;9744;49.364;7.484;2022-07-06T12:26:16;33.70;52.60
19220;DHT22;9744;49.364;7.484;2022-07-06T12:28:44;33.60;52.20
19220;DHT22;9744;49.364;7.484;2022-07-06T12:31:31;33.60;52.80
19220;DHT22;9744;49.364;7.484;2022-07-06T12:33:59;33.00;54.10
19220;DHT22;9744;49.364;7.484;2022-07-06T12:36:27;33.30;54.00
19220;DHT22;9744;49.364;7.484;2022-07-06T12:38:55;33.40;53.40
19220;DHT22;9744;49.364;7.484;2022-07-06T12:41:31;33.60;53.10
19220;DHT22;9744;49.364;7.484;2022-07-06T12:44:04;33.50;53.50
19220;DHT22;9744;49.364;7.484;2022-07-06T12:46:34;33.40;53.80
19220;DHT22;9744;49.364;7.484;2022-07-06T12:49:04;33.40;54.00
19220;DHT22;9744;49.364;7.484;2022-07-06T12:51:59;33.20;54.00
19220;DHT22;9744;49.364;7.484;2022-07-06T12:54:33;33.30;53.60
19220;DHT22;9744;49.364;7.484;2022-07-06T12:57:04;33.40;54.10
19220;DHT22;9744;49.364;7.484;2022-07-06T12:59:34;33.40;54.10
19220;DHT22;9744;49.364;7.484;2022-07-06T13:02:01;33.50;54.00
19220;DHT22;9744;49.364;7.484;2022-07-06T13:04:31;33.50;53.10
19220;DHT22;9744;49.364;7.484;2022-07-06T13:06:59;33.60;53.00
19220;DHT22;9744;49.364;7.484;2022-07-06T13:09:29;33.70;52.70
19220;DHT22;9744;49.364;7.484;2022-07-06T13:11:56;33.80;53.10
19220;DHT22;9744;49.364;7.484;2022-07-06T13:14:23;33.80;52.70
19220;DHT22;9744;49.364;7.484;2022-07-06T13:16:50;33.90;52.60
19220;DHT22;9744;49.364;7.484;2022-07-06T13:19:19;33.90;52.50
19220;DHT22;9744;49.364;7.484;2022-07-06T13:21:46;34.00;51.80
19220;DHT22;9744;49.364;7.484;2022-07-06T13:24:14;34.00;51.20
19220;DHT22;9744;49.364;7.484;2022-07-06T13:26:43;33.90;51.10
19220;DHT22;9744;49.364;7.484;2022-07-06T13:29:10;33.80;52.10
19220;DHT22;9744;49.364;7.484;2022-07-06T13:31:38;34.00;51.90
19220;DHT22;9744;49.364;7.484;2022-07-06T13:34:06;34.10;52.40
19220;DHT22;9744;49.364;7.484;2022-07-06T13:36:35;34.20;52.80
19220;DHT22;9744;49.364;7.484;2022-07-06T13:39:03;34.30;52.20
19220;DHT22;9744;49.364;7.484;2022-07-06T13:41:31;34.50;51.70
19220;DHT22;9744;49.364;7.484;2022-07-06T13:44:00;34.60;51.70
19220;DHT22;9744;49.364;7.484;2022-07-06T13:46:27;34.50;51.60
19220;DHT22;9744;49.364;7.484;2022-07-06T13:48:55;34.50;52.20
19220;DHT22;9744;49.364;7.484;2022-07-06T13:51:23;34.40;51.10
19220;DHT22;9744;49.364;7.484;2022-07-06T13:53:51;34.30;51.80
19220;DHT22;9744;49.364;7.484;2022-07-06T13:56:18;34.10;51.90
19220;DHT22;9744;49.364;7.484;2022-07-06T13:58:45;33.90;51.90
19220;DHT22;9744;49.364;7.484;2022-07-06T14:01:15;33.80;51.40
19220;DHT22;9744;49.364;7.484;2022-07-06T14:03:43;33.60;51.40
19220;DHT22;9744;49.364;7.484;2022-07-06T14:06:11;33.30;51.40
19220;DHT22;9744;49.364;7.484;2022-07-06T14:08:39;33.10;51.60
19220;DHT22;9744;49.364;7.484;2022-07-06T14:11:07;32.80;51.50
19220;DHT22;9744;49.364;7.484;2022-07-06T14:13:35;32.60;51.90
19220;DHT22;9744;49.364;7.484;2022-07-06T14:16:04;32.40;52.20
19220;DHT22;9744;49.364;7.484;2022-07-06T14:18:33;32.30;52.60
19220;DHT22;9744;49.364;7.484;2022-07-06T14:21:00;32.10;52.40
19220;DHT22;9744;49.364;7.484;2022-07-06T14:23:28;31.80;52.20
19220;DHT22;9744;49.364;7.484;2022-07-06T14:25:56;31.50;52.40
19220;DHT22;9744;49.364;7.484;2022-07-06T14:28:24;31.20;52.70
19220;DHT22;9744;49.364;7.484;2022-07-06T14:30:51;31.00;52.70
19220;DHT22;9744;49.364;7.484;2022-07-06T14:33:19;30.90;53.00
19220;DHT22;9744;49.364;7.484;2022-07-06T14:35:49;30.80;53.60
19220;DHT22;9744;49.364;7.484;2022-07-06T14:38:18;30.80;53.80
19220;DHT22;9744;49.364;7.484;2022-07-06T14:40:46;30.70;53.20
19220;DHT22;9744;49.364;7.484;2022-07-06T14:43:15;30.60;53.50
19220;DHT22;9744;49.364;7.484;2022-07-06T14:45:44;30.60;53.60
19220;DHT22;9744;49.364;7.484;2022-07-06T14:48:12;30.60;53.50
19220;DHT22;9744;49.364;7.484;2022-07-06T14:50:39;30.60;53.70
19220;DHT22;9744;49.364;7.484;2022-07-06T14:53:08;30.60;53.60
19220;DHT22;9744;49.364;7.484;2022-07-06T14:55:36;30.60;53.80
19220;DHT22;9744;49.364;7.484;2022-07-06T14:58:03;30.60;53.60
19220;DHT22;9744;49.364;7.484;2022-07-06T15:00:30;30.60;53.20
19220;DHT22;9744;49.364;7.484;2022-07-06T15:02:58;30.60;53.60
19220;DHT22;9744;49.364;7.484;2022-07-06T15:05:25;30.50;53.70
19220;DHT22;9744;49.364;7.484;2022-07-06T15:07:53;30.50;53.50
19220;DHT22;9744;49.364;7.484;2022-07-06T15:10:21;30.40;53.30
19220;DHT22;9744;49.364;7.484;2022-07-06T15:12:48;30.30;53.00
19220;DHT22;9744;49.364;7.484;2022-07-06T15:15:16;30.20;53.20
19220;DHT22;9744;49.364;7.484;2022-07-06T15:17:43;30.10;53.50
19220;DHT22;9744;49.364;7.484;2022-07-06T15:20:11;30.00;53.60
19220;DHT22;9744;49.364;7.484;2022-07-06T15:22:38;29.80;54.00
19220;DHT22;9744;49.364;7.484;2022-07-06T15:25:07;29.70;54.50
19220;DHT22;9744;49.364;7.484;2022-07-06T15:27:36;29.70;54.90
19220;DHT22;9744;49.364;7.484;2022-07-06T15:30:03;29.60;55.40
19220;DHT22;9744;49.364;7.484;2022-07-06T15:32:31;29.60;55.50
19220;DHT22;9744;49.364;7.484;2022-07-06T15:34:59;29.60;55.60
19220;DHT22;9744;49.364;7.484;2022-07-06T15:37:26;29.50;55.70
19220;DHT22;9744;49.364;7.484;2022-07-06T15:39:53;29.50;56.00
19220;DHT22;9744;49.364;7.484;2022-07-06T15:42:21;29.50;56.10
19220;DHT22;9744;49.364;7.484;2022-07-06T15:44:49;29.40;56.20
19220;DHT22;9744;49.364;7.484;2022-07-06T15:47:19;29.30;56.20
19220;DHT22;9744;49.364;7.484;2022-07-06T15:49:49;29.30;56.40
19220;DHT22;9744;49.364;7.484;2022-07-06T15:52:16;29.30;56.60
19220;DHT22;9744;49.364;7.484;2022-07-06T15:54:43;29.30;56.40